KEST/EST METAR and TAF weather

Enter ICAO airport designator
Station Type Date Time Source
KEST METAR 2021/05/12 04:52 UTC NOAA

KEST 120452Z AUTO 00000KT 10SM CLR 04/M05 A3039 RMK AO2 SLP297 T00391050


Station Type Date Time Source
KEST Decoded METAR 2021/05/12 04:52 UTC NOAA

ESTHERVILLE MUNICIPAL AIRPORT , IA, United States (KEST) 43-24N 94-45W 401M
May 12, 2021 - 12:52 AM EDT / 2021.05.12 0452 UTC
Wind: Calm:0
Visibility: 10 mile(s):0
Sky conditions: clear
Temperature: 39.0 F (3.9 C)
Dew Point: 23.0 F (-5.0 C)
Relative Humidity: 52%
Pressure (altimeter): 30.39 in. Hg (1029 hPa)
ob: KEST 120452Z AUTO 00000KT 10SM CLR 04/M05 A3039 RMK AO2 SLP297 T00391050
cycle: 5

Station Type Date Time Source
KEST TAF UTC NOAA

Error!

Example: see airport list